Valley Peak, Santa Cruz Island Reserve, California Weather observations

Data are for 10 minute period ending at time listed.
 Day   Time   Solar   Ave.   Ave.  Ave.  Vector  Max.   Baro.   Total    
  of    of     Rad.   Air    Rel.  Wind   Wind   Wind  Press.  Precip.   
Year   Day            Temp.  Hum.  Speed  Dir.   Gust                    
2014   (PST)  Kw/m2    F      %     mph   deg.    mph    mb.     in.     
-------------------------------------------------------------------------
 271   22:30   0.00   59.4    70    5.5   344     6.6   964.1    0.00 
 271   22:40   0.00   58.4    76    6.3    28     7.2   964.0    0.00 
 271   22:50   0.00   57.8    78    4.5    16     5.9   964.0    0.00 
 271   23:00   0.00   58.0    77    4.7    15     5.8   964.0    0.00 
 271   23:10   0.00   58.5    75    4.5   357     6.4   964.0    0.00 
 271   23:20   0.00   59.9    69    5.3   346     6.8   964.0    0.00 
 271   23:30   0.00   59.3    73    7.2     4     9.4   964.0    0.00 
 271   23:40   0.00   58.5    76    7.4     9     9.7   964.0    0.00 
 271   23:50   0.00   58.8    75    7.8   357    10.7   964.0    0.00 
 272    0:00   0.00   59.0    74    9.2   354    12.1   964.0    0.00 
 272    0:10   0.00   59.2    74    9.6   350    12.8   964.0    0.00 
 272    0:20   0.00   59.1    74    9.6   349    12.0   964.0    0.00 
 272    0:30   0.00   59.0    74   11.2   347    13.7   964.0    0.00 
 272    0:40   0.00   59.0    74   11.0   354    13.3   964.1    0.00 
 272    0:50   0.00   58.7    76   10.5     3    13.0   964.1    0.00 
 272    1:00   0.00   58.8    75   10.0   358    13.6   964.1    0.00 
 272    1:10   0.00   59.8    71   10.3   346    12.3   964.0    0.00 
 272    1:20   0.00   59.7    72    9.1     0    11.4   964.1    0.00 
 272    1:30   0.00   59.0    74    7.6     6    10.9   964.1    0.00 
 272    1:40   0.00   58.4    76    7.5    12    10.0   964.1    0.00 
 272    1:50   0.00   58.4    76    7.9     3    10.3   964.0    0.00 
 272    2:00   0.00   59.4    72    7.7   347     9.6   963.9    0.00 
 272    2:10   0.00   59.2    73    4.6     7     7.8   963.9    0.00 
 272    2:20   0.00   58.7    75    2.9   352     4.6   964.1    0.00 
 272    2:30   0.00   58.9    74    2.1   247     3.4   964.1    0.00 
 272    2:40   0.00   59.0    74    3.1   325     5.2   964.0    0.00 
 272    2:50   0.00   59.0    76    2.0   219     3.1   964.0    0.00 
 272    3:00   0.00   58.4    78    1.8   202     3.3   964.0    0.00 
 272    3:10   0.00   58.3    79    2.1   192     3.1   964.0    0.00 
 272    3:20   0.00   57.9    83    3.0   204     4.2   964.0    0.00 
 272    3:30   0.00   57.5    86    3.4   187     4.5   964.0    0.00 
 272    3:40   0.00   57.5    92    0.9   145     3.2   964.0    0.00 
 272    3:50   0.00   57.6    84    2.3   344     3.5   963.9    0.00 
 272    4:00   0.00   58.3    84    2.5   227     3.3   963.9    0.00 
 272    4:10   0.00   57.5    92    2.6   202     3.7   963.9    0.00 
 272    4:20   0.00   57.1    94    3.0   216     3.9   964.0    0.00 
 272    4:30   0.00   57.0    95    3.4   226     5.2   964.0    0.00 
 272    4:40   0.00   56.9    96    4.1   216     5.3   964.0    0.00 
 272    4:50   0.00   56.9    96    2.7   233     3.7   964.1    0.00 
 272    5:00   0.00   57.0    96    2.6   227     3.2   964.1    0.00 
 272    5:10   0.00   56.9    94    4.1   215     5.3   964.2    0.00 
 272    5:20   0.00   56.9    91    4.0   218     4.7   964.2    0.00 
 272    5:30   0.00   57.1    88    3.8   208     4.8   964.4    0.00 
 272    5:40   0.00   57.3    86    3.7   214     4.5   964.4    0.00 
 272    5:50   0.00   57.5    84    2.7   226     3.4   964.5    0.00 
 272    6:00   0.00   57.9    81    2.6   212     3.4   964.6    0.00 
 272    6:10   0.02   58.4    78    1.8   352     2.9   964.6    0.00 
 272    6:20   0.05   59.2    75    2.0   335     2.7   964.7    0.00 
 272    6:30   0.08   59.3    75    0.9   332     1.9   964.8    0.00 
 272    6:40   0.11   59.2    76    3.1   296     4.2   964.8    0.00 
 272    6:50   0.14   59.1    77    4.0   314     4.8   964.8    0.00 
 272    7:00   0.18   59.6    77    5.9   352     8.1   964.8    0.00 
 272    7:10   0.21   58.8    83    8.4    26    10.7   964.9    0.00 
 272    7:20   0.24   58.1    85   10.0    25    12.6   965.0    0.00 
 272    7:30   0.28   58.4    85   11.2    33    13.3   965.0    0.00 
 272    7:40   0.31   60.0    81    9.5    43    12.1   965.2    0.00 
 272    7:50   0.34   60.8    78    9.9    36    13.6   965.3    0.00 
 272    8:00   0.38   60.3    80   10.6    30    12.9   965.2    0.00 
 272    8:10   0.41   61.1    79   11.0    34    13.8   965.2    0.00 
 272    8:20   0.44   60.8    79   11.5    27    15.4   965.2    0.00 
 272    8:30   0.47   61.1    77   12.8    29    15.1   965.3    0.00 
 272    8:40   0.50   61.2    78   13.3    30    15.2   965.2    0.00 
 272    8:50   0.53   62.1    74   13.1    31    16.5   965.2    0.00 
 272    9:00   0.56   64.2    68   12.1    39    17.5   965.2    0.00 
 272    9:10   0.59   65.7    65   10.8    41    15.7   965.1    0.00 
 272    9:20   0.61   66.7    63    7.6    37    13.0   965.2    0.00 
 272    9:30   0.64   67.4    61    7.2    40    10.9   965.1    0.00 
 272    9:40   0.66   68.8    59    8.4    42    12.6   965.0    0.00 
 272    9:50   0.68   68.5    59    9.1    37    13.9   964.9    0.00 
 272   10:00   0.70   68.9    59   10.5    37    16.7   964.9    0.00 
 272   10:10   0.72   68.4    60   10.4    36    14.5   964.9    0.00 
 272   10:20   0.73   67.4    62   10.5    33    15.9   965.0    0.00 
 272   10:30   0.75   67.4    60   10.6    28    15.1   964.8    0.00 
 272   10:40   0.76   67.6    61   10.3    34    14.8   964.7    0.00 
 272   10:50   0.77   68.5    60    9.7    37    13.4   964.6    0.00 
 272   11:00   0.78   69.8    58    8.8    38    12.6   964.5    0.00 
 272   11:10   0.79   72.5    53    5.9    43    10.3   964.4    0.00 
 272   11:20   0.80   74.0    48    4.9    38     8.9   964.5    0.00 
 272   11:30   0.80   77.1    42    5.9    43    10.9   964.5    0.00 
 272   11:40   0.81   78.2    39    4.0    45     9.3   964.4    0.00 
 272   11:50   0.81   76.7    39    3.2    15     6.4   964.3    0.00 
 272   12:00   0.81   77.0    38    3.3     5     8.7   964.3    0.00 
 272   12:10   0.80   78.9    38    2.9   121     5.7   964.4    0.00 
 272   12:20   0.79   80.3    40    4.5   114    11.1   964.4    0.00 
 272   12:30   0.79   80.5    38    2.9    97     7.4   964.2    0.00 
 272   12:40   0.78   79.8    39    2.5   189     6.2   964.1    0.00 
 272   12:50   0.77   78.7    41    3.1   231    11.0   964.0    0.00 
 272   13:00   0.76   77.6    44    3.7   252    10.1   963.8    0.00 
 272   13:10   0.74   77.2    48    2.0   335     5.3   963.7    0.00 
 272   13:20   0.73   77.6    46    2.3    28     5.6   963.7    0.00 
 272   13:30   0.71   75.9    49    3.3    36     8.3   963.6    0.00 
 272   13:40   0.69   76.6    48    3.2    33     6.8   963.5    0.00 
 272   13:50   0.67   76.2    47    2.2    42     4.5   963.5    0.00 
 272   14:00   0.65   77.1    45    4.8    27     9.4   963.4    0.00 
 272   14:10   0.62   74.9    49    5.9    28    10.2   963.4    0.00 
 272   14:20   0.60   75.2    47    3.7   322     8.6   963.3    0.00 
 272   14:30   0.57   77.3    39    8.7   246    15.3   963.2    0.00 
 272   14:40   0.55   76.9    39   10.1   251    15.1   963.2    0.00 
 272   14:50   0.52   76.4    39   11.2   250    16.5   963.0    0.00 
 272   15:00   0.49   75.7    41   10.9   246    15.1   962.9    0.00 
 272   15:10   0.46   75.6    42   10.8   241    15.5   962.9    0.00 
 272   15:20   0.42   77.2    41    8.6   238    12.8   962.9    0.00 
 272   15:30   0.39   78.3    40    8.2   241    13.0   962.9    0.00 
 272   15:40   0.36   77.6    43    4.8   247    11.3   962.8    0.00 
 272   15:50   0.33   77.4    46    2.8    15     5.0   962.8    0.00 
 272   16:00   0.29   77.1    46    5.2    26     6.6   962.8    0.00 
 272   16:10   0.26   74.2    50    5.8    18     7.2   962.8    0.00 
 272   16:20   0.22   72.9    51    4.7     5     5.9   962.7    0.00 
 272   16:30   0.19   73.1    50    4.6    14     5.6   962.6    0.00 
 272   16:40   0.16   71.6    55    5.9    15     7.0   962.5    0.00 
 272   16:50   0.13   70.2    58    6.5    13     8.5   962.4    0.00 
 272   17:00   0.10   69.4    58    6.2     0     8.6   962.3    0.00 
 272   17:10   0.07   69.6    56    5.6     5     7.2   962.2    0.00 
 272   17:20   0.04   68.8    58    4.9    13     5.9   962.2    0.00 
 272   17:30   0.02   67.9    59    6.4    18     7.5   962.2    0.00 
 272   17:40   0.01   66.8    61    6.5    12     7.7   962.1    0.00 
 272   17:50   0.00   66.0    62    6.8     3     8.8   962.1    0.00 
 272   18:00   0.00   65.8    62    6.6     2     8.3   962.1    0.00 
 272   18:10   0.00   65.9    61    6.7     5     7.7   962.1    0.00 
 272   18:20   0.00   66.2    60    7.4     6     9.0   962.2    0.00 
 272   18:30   0.00   65.7    62    7.0     3     8.6   962.3    0.00 
 272   18:40   0.00   66.6    59    8.2   352    10.5   962.4    0.00 
 272   18:50   0.00   67.6    56   10.9   342    13.5   962.4    0.00 
 272   19:00   0.00   68.1    55   10.6   333    12.3   962.5    0.00 
 272   19:10   0.00   68.0    56   11.8   344    15.3   962.4    0.00 
 272   19:20   0.00   67.5    58   12.5   354    17.1   962.5    0.00 
 272   19:30   0.00   67.0    59   13.4   353    17.8   962.6    0.00 
 272   19:40   0.00   67.3    58   12.9   353    18.0   962.7    0.00 
 272   19:50   0.00   67.6    58   14.5   356    18.9   962.7    0.00 
 272   20:00   0.00   68.2    57   14.2   358    18.9   962.8    0.00 
 272   20:10   0.00   68.4    56   13.5     3    18.0   962.9    0.00 
 272   20:20   0.00   68.5    56   13.0    10    16.4   962.9    0.00 
 272   20:30   0.00   69.0    55   13.6     2    15.7   962.9    0.00 
 272   20:40   0.00   69.3    54   13.8     2    16.5   962.9    0.00 
 272   20:50   0.00   69.5    53   12.3     6    15.5   963.0    0.00 
 272   21:00   0.00   68.9    54   13.4     2    16.5   963.0    0.00 
 272   21:10   0.00   68.8    54   13.8     7    16.3   963.0    0.00 
 272   21:20   0.00   69.1    54   13.7     6    17.2   963.0    0.00 
 272   21:30   0.00   69.0    53   13.9     6    17.6   962.9    0.00 
 272   21:40   0.00   69.5    52   13.1     3    16.6   963.0    0.00 
 272   21:50   0.00   69.2    53   11.9     8    14.3   963.0    0.00 
 272   22:00   0.00   68.6    54   12.1    10    14.8   963.1    0.00 
 272   22:10   0.00   68.2    54   13.1     8    16.1   963.1    0.00 
 272   22:20   0.00   69.2    51   13.8     3    17.0   963.0    0.00 

Return to Valley Peak, Santa Cruz Island Reserve graphs page.


Western Regional Climate Center,wrcc@dri.edu